Time;durP1;ratioP1;P1;durP2;ratioP2;P2;SDS_P1;SDS_P2;PMS_P1;PMS_P2;Temp;Humidity;BMP_temperature;BMP_pressure;BME280_temperature;BME280_humidity;BME280_pressure;Samples;Min_cycle;Max_cycle;Signal;HPM_P1;HPM_P2
2021/12/16 00:07:58;;;;;;;26.87;17.07;;;9.90;99.90;;;;;;5126102;27;20943;-82
2021/12/16 00:11:09;;;;;;;23.70;15.43;;;10.00;99.90;;;;;;5097808;27;20464;-82
2021/12/16 00:32:33;;;;;;;26.70;17.90;;;10.10;99.90;;;;;;5126662;27;20519;-85
2021/12/16 00:35:00;;;;;;;27.53;18.37;;;10.10;99.90;;;;;;5124436;27;20888;-83
2021/12/16 00:37:28;;;;;;;27.90;17.10;;;10.10;99.90;;;;;;5124549;27;20889;-83
2021/12/16 00:39:55;;;;;;;29.63;18.17;;;10.10;99.90;;;;;;5123102;27;20522;-83
2021/12/16 00:42:33;;;;;;;30.37;18.80;;;10.20;99.90;;;;;;5115329;27;20453;-83
2021/12/16 00:45:34;;;;;;;27.77;18.47;;;10.20;99.90;;;;;;5119989;27;21146;-83
2021/12/16 00:48:07;;;;;;;32.77;19.70;;;10.20;99.90;;;;;;5122624;27;20469;-83
2021/12/16 00:56:07;;;;;;;30.30;18.63;;;10.20;99.90;;;;;;5123729;27;20997;-83
2021/12/16 00:58:39;;;;;;;33.43;19.53;;;10.10;99.90;;;;;;5125309;27;20445;-87
2021/12/16 01:01:17;;;;;;;28.60;17.87;;;10.10;99.90;;;;;;5124234;27;20441;-83
2021/12/16 01:03:50;;;;;;;31.00;18.30;;;10.10;99.90;;;;;;5117271;27;20777;-83
2021/12/16 01:34:02;;;;;;;28.23;17.97;;;10.20;99.90;;;;;;5122195;27;20429;-83
2021/12/16 01:36:43;;;;;;;37.57;18.90;;;10.20;99.90;;;;;;5113476;27;20449;-84
2021/12/16 01:39:53;;;;;;;28.63;18.30;;;10.20;99.90;;;;;;5123457;27;20473;-84
2021/12/16 01:42:27;;;;;;;27.07;17.00;;;10.20;99.90;;;;;;5123487;27;20441;-83
2021/12/16 01:50:24;;;;;;;31.43;18.00;;;10.10;99.90;;;;;;5124668;27;20457;-84
2021/12/16 01:55:45;;;;;;;28.07;18.27;;;10.10;99.90;;;;;;5115708;27;20450;-82
2021/12/16 01:58:16;;;;;;;25.23;15.27;;;10.00;99.90;;;;;;5123574;27;20433;-83
2021/12/16 02:00:58;;;;;;;27.60;17.97;;;10.10;99.90;;;;;;5125236;27;20449;-83
2021/12/16 02:03:39;;;;;;;27.97;17.63;;;10.10;99.90;;;;;;5120356;27;20437;-83
2021/12/16 02:06:15;;;;;;;35.13;19.03;;;10.10;99.90;;;;;;5122629;27;20452;-83
2021/12/16 02:08:42;;;;;;;29.40;18.67;;;10.10;99.90;;;;;;5125001;27;20444;-84
2021/12/16 02:11:30;;;;;;;32.93;18.03;;;10.10;99.90;;;;;;5122649;27;20562;-83
2021/12/16 02:27:54;;;;;;;25.87;16.53;;;10.00;99.90;;;;;;5121247;27;20468;-84
2021/12/16 02:36:23;;;;;;;25.97;14.33;;;10.00;99.90;;;;;;5101073;27;20449;-83
2021/12/16 02:38:56;;;;;;;23.77;14.40;;;10.00;99.90;;;;;;5124535;27;20452;-84
2021/12/16 02:41:24;;;;;;;23.60;14.63;;;10.00;99.90;;;;;;5119296;27;20539;-84
2021/12/16 02:44:10;;;;;;;19.13;12.93;;;9.90;99.90;;;;;;5120822;27;20514;-83
2021/12/16 02:49:23;;;;;;;20.07;13.27;;;9.70;99.90;;;;;;5112182;28;20436;-84
2021/12/16 02:51:49;;;;;;;26.03;14.10;;;9.60;99.90;;;;;;5120797;28;20561;-84
2021/12/16 02:54:18;;;;;;;21.20;12.93;;;9.50;99.90;;;;;;5123510;28;20505;-84
2021/12/16 02:56:47;;;;;;;18.90;13.00;;;9.50;99.90;;;;;;5124581;28;20469;-84
2021/12/16 02:59:16;;;;;;;22.57;13.80;;;9.40;99.90;;;;;;5121233;27;20476;-84
2021/12/16 03:01:45;;;;;;;20.57;13.80;;;9.40;99.90;;;;;;5112638;28;20508;-84
2021/12/16 03:04:18;;;;;;;23.60;14.23;;;9.40;99.90;;;;;;5122481;28;20445;-84
2021/12/16 03:06:47;;;;;;;19.43;13.37;;;9.40;99.90;;;;;;5124831;27;20493;-84
2021/12/16 03:09:22;;;;;;;19.33;13.43;;;9.40;99.90;;;;;;5121700;28;21007;-84
2021/12/16 03:12:14;;;;;;;21.40;13.87;;;9.40;99.90;;;;;;5120815;28;20468;-84
2021/12/16 03:14:42;;;;;;;19.60;11.70;;;9.40;99.90;;;;;;5115420;28;20425;-85
2021/12/16 03:17:18;;;;;;;18.50;11.40;;;9.40;99.90;;;;;;5123220;28;20452;-84
2021/12/16 03:19:59;;;;;;;19.20;12.60;;;9.40;99.90;;;;;;5124795;28;20440;-84
2021/12/16 03:22:47;;;;;;;22.20;12.53;;;9.40;99.90;;;;;;5113773;27;20449;-84
2021/12/16 03:25:29;;;;;;;17.53;11.70;;;9.40;99.90;;;;;;5123827;27;20442;-83
2021/12/16 03:28:24;;;;;;;16.47;10.20;;;9.40;99.90;;;;;;5094622;28;20499;-84
2021/12/16 03:31:21;;;;;;;15.00;11.27;;;9.40;99.90;;;;;;5120141;27;21006;-83
2021/12/16 03:33:58;;;;;;;17.33;10.90;;;9.50;99.90;;;;;;5119942;27;20453;-83
2021/12/16 03:36:30;;;;;;;19.87;10.40;;;9.50;99.90;;;;;;5117260;27;20947;-84
2021/12/16 03:39:00;;;;;;;14.73;11.50;;;9.60;99.90;;;;;;5125608;27;20538;-84
2021/12/16 03:41:30;;;;;;;15.27;10.70;;;9.60;99.90;;;;;;5124928;27;20545;-84
2021/12/16 03:44:00;;;;;;;15.37;10.80;;;9.60;99.90;;;;;;5126398;27;20878;-84
2021/12/16 03:46:29;;;;;;;14.80;10.43;;;9.70;99.90;;;;;;5124504;27;20999;-84
2021/12/16 03:49:01;;;;;;;15.40;10.73;;;9.70;99.90;;;;;;5124827;27;20452;-84
2021/12/16 03:51:30;;;;;;;14.20;10.17;;;9.70;99.90;;;;;;5128087;27;20525;-84
2021/12/16 03:54:02;;;;;;;13.47;9.37;;;9.80;99.90;;;;;;5119863;27;20481;-84
2021/12/16 03:56:30;;;;;;;16.40;9.67;;;9.80;99.90;;;;;;5127525;27;20532;-84
2021/12/16 03:58:57;;;;;;;15.10;9.97;;;9.80;99.90;;;;;;5125509;27;20510;-83
2021/12/16 04:01:26;;;;;;;13.90;9.60;;;9.80;99.90;;;;;;5123799;27;20477;-84
2021/12/16 04:03:53;;;;;;;11.20;8.30;;;9.90;99.90;;;;;;5123934;27;20545;-81
2021/12/16 04:06:22;;;;;;;13.03;10.63;;;9.90;99.90;;;;;;5126868;27;20559;-80
2021/12/16 04:08:52;;;;;;;13.73;9.23;;;9.90;99.90;;;;;;5127099;27;20868;-81
2021/12/16 04:11:23;;;;;;;13.10;8.57;;;10.00;99.90;;;;;;5124182;27;20469;-82
2021/12/16 04:13:55;;;;;;;13.97;8.73;;;10.00;99.90;;;;;;5123700;27;20910;-82
2021/12/16 04:16:25;;;;;;;15.07;9.13;;;9.90;99.90;;;;;;5116559;27;20793;-82
2021/12/16 04:18:51;;;;;;;16.80;9.23;;;10.00;99.90;;;;;;5124266;27;20487;-82
2021/12/16 04:21:19;;;;;;;14.87;9.87;;;10.00;99.90;;;;;;5127125;27;20479;-82
2021/12/16 04:23:47;;;;;;;13.20;10.00;;;10.00;99.90;;;;;;5127591;27;20942;-82
2021/12/16 04:26:14;;;;;;;15.37;10.03;;;10.00;99.90;;;;;;5125422;27;20445;-83
2021/12/16 04:28:42;;;;;;;15.23;9.23;;;10.00;99.90;;;;;;5124322;27;20647;-82
2021/12/16 04:31:10;;;;;;;14.13;8.93;;;10.00;99.90;;;;;;5125790;27;20537;-82
2021/12/16 04:33:39;;;;;;;15.73;10.47;;;10.00;99.90;;;;;;5127444;27;20560;-82
2021/12/16 04:36:08;;;;;;;16.73;9.73;;;10.00;99.90;;;;;;5126324;27;20497;-82
2021/12/16 04:38:35;;;;;;;12.73;9.37;;;10.00;99.90;;;;;;5124112;27;20446;-82
2021/12/16 04:41:02;;;;;;;14.10;10.63;;;10.00;99.90;;;;;;5124326;27;20449;-82
2021/12/16 04:43:38;;;;;;;15.33;9.67;;;10.00;99.90;;;;;;5121286;27;21034;-82
2021/12/16 04:46:06;;;;;;;14.07;9.80;;;10.00;99.90;;;;;;5126041;27;20441;-82
2021/12/16 04:48:34;;;;;;;11.67;9.27;;;10.00;99.90;;;;;;5123794;27;20445;-81
2021/12/16 04:51:01;;;;;;;11.47;9.40;;;10.10;99.90;;;;;;5124427;27;20441;-81
2021/12/16 04:53:28;;;;;;;11.83;9.00;;;10.00;99.90;;;;;;5126949;27;20559;-81
2021/12/16 04:55:55;;;;;;;14.23;9.70;;;10.10;99.90;;;;;;5127110;27;20540;-82
2021/12/16 04:58:22;;;;;;;12.43;8.93;;;10.10;99.90;;;;;;5123455;27;20477;-82
2021/12/16 05:00:49;;;;;;;11.20;9.47;;;10.10;99.90;;;;;;5123332;27;20937;-81
2021/12/16 05:03:16;;;;;;;13.83;9.77;;;10.10;99.90;;;;;;5124249;27;20488;-81
2021/12/16 05:05:44;;;;;;;11.80;9.17;;;10.00;99.90;;;;;;5122643;27;20533;-81
2021/12/16 05:08:10;;;;;;;16.50;11.10;;;10.00;99.90;;;;;;5124301;27;20991;-81
2021/12/16 05:10:39;;;;;;;24.40;12.93;;;10.00;99.90;;;;;;5126098;27;20476;-81
2021/12/16 05:13:05;;;;;;;12.50;10.33;;;10.00;99.90;;;;;;5124241;27;20472;-81
2021/12/16 05:15:36;;;;;;;15.00;9.33;;;9.90;99.90;;;;;;5122263;27;20537;-81
2021/12/16 05:18:06;;;;;;;13.87;11.03;;;9.80;99.90;;;;;;5123299;27;20453;-82
2021/12/16 05:20:35;;;;;;;14.20;10.07;;;9.80;99.90;;;;;;5126041;27;20451;-81
2021/12/16 05:26:02;;;;;;;13.20;9.93;;;9.90;99.90;;;;;;5122836;27;20511;-82
2021/12/16 05:28:29;;;;;;;17.00;11.57;;;9.80;99.90;;;;;;5115756;27;20470;-82
2021/12/16 05:30:57;;;;;;;15.33;10.10;;;9.90;99.90;;;;;;5122991;27;20473;-83
2021/12/16 05:33:25;;;;;;;13.47;10.20;;;9.80;99.90;;;;;;5127145;27;20828;-84
2021/12/16 05:35:53;;;;;;;14.07;10.33;;;9.80;99.90;;;;;;5126550;27;20860;-87
2021/12/16 05:38:22;;;;;;;14.83;10.87;;;9.80;99.90;;;;;;5123503;27;20795;-86
2021/12/16 05:40:49;;;;;;;16.60;11.00;;;9.90;99.90;;;;;;5123152;27;20480;-88
2021/12/16 05:43:18;;;;;;;15.10;9.80;;;9.80;99.90;;;;;;5119025;27;20543;-83
2021/12/16 05:45:46;;;;;;;15.00;10.93;;;9.90;99.90;;;;;;5126594;27;20494;-83
2021/12/16 05:48:16;;;;;;;15.17;10.93;;;9.80;99.90;;;;;;5123429;27;20501;-82
2021/12/16 05:50:46;;;;;;;14.73;10.10;;;9.70;99.90;;;;;;5122383;27;20529;-83
2021/12/16 05:53:13;;;;;;;15.90;11.10;;;9.60;99.90;;;;;;5123517;27;20512;-83
2021/12/16 05:55:44;;;;;;;17.87;13.10;;;9.60;99.90;;;;;;5125972;27;20513;-83
2021/12/16 05:58:17;;;;;;;16.03;11.50;;;9.50;99.90;;;;;;5120407;27;20536;-84
2021/12/16 06:00:44;;;;;;;16.93;11.50;;;9.40;99.90;;;;;;5125565;27;20528;-83
2021/12/16 06:03:11;;;;;;;15.60;11.67;;;9.40;99.90;;;;;;5119196;27;20923;-83
2021/12/16 06:05:38;;;;;;;16.50;10.70;;;9.30;99.90;;;;;;5124477;27;20442;-84
2021/12/16 06:08:05;;;;;;;19.33;12.67;;;9.30;99.90;;;;;;5124830;27;20515;-84
2021/12/16 06:11:09;;;;;;;16.87;11.90;;;9.30;99.90;;;;;;5122186;27;20438;-84
2021/12/16 06:13:35;;;;;;;18.87;12.60;;;9.30;99.90;;;;;;5114158;27;20457;-85
2021/12/16 06:27:06;;;;;;;18.63;11.50;;;9.20;99.90;;;;;;5084142;27;20439;-80
2021/12/16 06:29:35;;;;;;;15.90;11.00;;;9.20;99.90;;;;;;5121120;27;20487;-81
2021/12/16 06:32:04;;;;;;;16.97;12.50;;;9.20;99.90;;;;;;5121508;27;20576;-81
2021/12/16 06:34:30;;;;;;;20.30;12.27;;;9.30;99.90;;;;;;5124585;27;20445;-83
2021/12/16 06:36:57;;;;;;;17.33;12.00;;;9.20;99.90;;;;;;5116006;27;20528;-84
2021/12/16 06:39:24;;;;;;;16.70;11.50;;;9.30;99.90;;;;;;5121430;27;20859;-84
2021/12/16 06:41:50;;;;;;;18.53;12.40;;;9.30;99.90;;;;;;5120892;27;20537;-81
2021/12/16 06:44:22;;;;;;;19.77;12.70;;;9.30;99.90;;;;;;5124132;27;20468;-82
2021/12/16 06:46:54;;;;;;;17.00;12.33;;;9.30;99.90;;;;;;5124240;28;20465;-82
2021/12/16 06:49:22;;;;;;;14.37;11.47;;;9.30;99.90;;;;;;5112770;27;20453;-82
2021/12/16 06:51:52;;;;;;;17.43;12.43;;;9.40;99.90;;;;;;5121178;28;20932;-82
2021/12/16 06:54:26;;;;;;;18.23;11.50;;;9.40;99.90;;;;;;5123988;28;20453;-81
2021/12/16 06:57:02;;;;;;;17.40;11.50;;;9.40;99.90;;;;;;5124294;28;20486;-81
2021/12/16 06:59:33;;;;;;;18.77;12.27;;;9.40;99.90;;;;;;5113456;28;20441;-80
2021/12/16 07:02:11;;;;;;;18.77;12.00;;;9.40;99.90;;;;;;5114714;28;20485;-80
2021/12/16 07:04:38;;;;;;;21.27;12.80;;;9.50;99.90;;;;;;5127552;27;20441;-81
2021/12/16 07:07:07;;;;;;;17.33;13.37;;;9.50;99.90;;;;;;5126959;27;20444;-81
2021/12/16 07:09:34;;;;;;;16.83;11.70;;;9.60;99.90;;;;;;5125348;27;20854;-80
2021/12/16 07:12:02;;;;;;;18.43;12.60;;;9.60;99.90;;;;;;5125276;27;20453;-81
2021/12/16 07:14:36;;;;;;;19.57;12.77;;;9.60;99.90;;;;;;5128073;27;20936;-81
2021/12/16 07:17:07;;;;;;;20.87;13.70;;;9.70;99.90;;;;;;5127076;27;20444;-80
2021/12/16 07:19:34;;;;;;;18.40;12.10;;;9.70;99.90;;;;;;5124710;27;20442;-81
2021/12/16 07:22:01;;;;;;;19.50;12.53;;;9.70;99.90;;;;;;5125077;27;20489;-82
2021/12/16 07:24:28;;;;;;;19.90;12.60;;;9.80;99.90;;;;;;5128153;27;20468;-82
2021/12/16 07:26:55;;;;;;;23.50;11.67;;;9.80;99.90;;;;;;5128077;27;20487;-82
2021/12/16 07:29:21;;;;;;;17.77;11.87;;;9.80;99.90;;;;;;5116141;27;20484;-81
2021/12/16 07:31:48;;;;;;;20.47;12.07;;;9.80;99.90;;;;;;5124911;27;20477;-82
2021/12/16 07:34:16;;;;;;;16.70;11.90;;;9.80;99.90;;;;;;5126412;27;20980;-82
2021/12/16 07:36:44;;;;;;;16.57;11.70;;;9.90;99.90;;;;;;5127898;27;20527;-81
2021/12/16 07:39:15;;;;;;;20.07;12.30;;;9.90;99.90;;;;;;5125359;27;20485;-81
2021/12/16 07:41:46;;;;;;;16.40;11.83;;;9.90;99.90;;;;;;5124186;27;20430;-81
2021/12/16 07:44:13;;;;;;;17.00;11.40;;;9.90;99.90;;;;;;5126148;27;20445;-81
2021/12/16 07:46:41;;;;;;;25.70;12.77;;;9.90;99.90;;;;;;5124729;27;20497;-80
2021/12/16 07:49:09;;;;;;;16.03;11.23;;;9.90;99.90;;;;;;5126478;27;20865;-80
2021/12/16 07:51:41;;;;;;;13.60;10.60;;;9.90;99.90;;;;;;5128463;27;20531;-80
2021/12/16 07:54:08;;;;;;;15.27;10.63;;;9.90;99.90;;;;;;5126998;27;20555;-80
2021/12/16 07:56:35;;;;;;;13.83;9.63;;;9.90;99.90;;;;;;5124833;27;20959;-81
2021/12/16 07:59:02;;;;;;;13.47;10.20;;;9.90;99.90;;;;;;5125306;27;20448;-82
2021/12/16 08:01:29;;;;;;;14.13;10.07;;;9.90;99.90;;;;;;5125362;27;20536;-82
2021/12/16 08:03:56;;;;;;;14.90;9.67;;;9.90;99.90;;;;;;5123708;27;20446;-81
2021/12/16 08:06:26;;;;;;;12.07;9.13;;;9.90;99.90;;;;;;5116356;27;20496;-81
2021/12/16 08:08:57;;;;;;;15.13;10.23;;;10.00;99.90;;;;;;5124435;27;20532;-82
2021/12/16 08:11:26;;;;;;;15.00;11.50;;;10.00;99.90;;;;;;5115792;27;20877;-81
2021/12/16 08:13:52;;;;;;;14.07;9.30;;;10.00;99.90;;;;;;5123494;27;20507;-81
2021/12/16 08:16:22;;;;;;;12.73;9.83;;;10.10;99.90;;;;;;5125886;27;20456;-82
2021/12/16 08:18:49;;;;;;;12.03;8.77;;;10.10;99.90;;;;;;5127008;27;20449;-82
2021/12/16 08:21:15;;;;;;;13.87;9.93;;;10.10;99.90;;;;;;5116026;27;20873;-82
2021/12/16 08:23:42;;;;;;;11.73;9.10;;;10.10;99.90;;;;;;5124039;27;20499;-82
2021/12/16 08:26:10;;;;;;;10.97;9.07;;;10.10;99.90;;;;;;5125113;27;20960;-83
2021/12/16 08:28:37;;;;;;;13.10;9.17;;;10.10;99.90;;;;;;5127284;27;20468;-81
2021/12/16 08:31:05;;;;;;;10.77;8.80;;;10.10;99.90;;;;;;5125640;27;20441;-82
2021/12/16 08:33:32;;;;;;;14.73;8.97;;;10.10;99.90;;;;;;5122975;27;21067;-82
2021/12/16 08:35:58;;;;;;;13.00;8.03;;;10.10;99.90;;;;;;5123796;27;20864;-82
2021/12/16 08:38:27;;;;;;;12.03;8.97;;;10.20;99.90;;;;;;5126650;27;20531;-81
2021/12/16 08:40:59;;;;;;;10.83;7.67;;;10.20;99.90;;;;;;5126648;27;20997;-83
2021/12/16 08:43:27;;;;;;;11.70;8.83;;;10.30;99.90;;;;;;5112915;27;20477;-83
2021/12/16 08:45:54;;;;;;;12.47;9.20;;;10.30;99.90;;;;;;5127246;27;21134;-82
2021/12/16 08:48:22;;;;;;;16.10;8.10;;;10.30;99.90;;;;;;5123384;27;20580;-82
2021/12/16 08:50:51;;;;;;;11.50;9.07;;;10.30;99.90;;;;;;5123705;27;20529;-82
2021/12/16 08:53:20;;;;;;;12.00;7.93;;;10.30;99.90;;;;;;5127030;27;20867;-82
2021/12/16 08:55:48;;;;;;;15.00;9.87;;;10.30;99.90;;;;;;5127301;27;20449;-81
2021/12/16 08:58:15;;;;;;;12.70;8.10;;;10.30;99.90;;;;;;5124314;27;20517;-82
2021/12/16 09:00:46;;;;;;;10.10;8.27;;;10.30;99.90;;;;;;5123366;27;20471;-82
2021/12/16 09:03:13;;;;;;;11.10;8.60;;;10.30;99.90;;;;;;5125941;27;20529;-82
2021/12/16 09:05:40;;;;;;;13.03;9.37;;;10.30;99.90;;;;;;5127351;27;20535;-82
2021/12/16 09:08:07;;;;;;;10.80;9.70;;;10.30;99.90;;;;;;5125287;27;20445;-83
2021/12/16 09:10:36;;;;;;;15.30;9.57;;;10.20;99.90;;;;;;5123306;27;20478;-83
2021/12/16 09:13:09;;;;;;;12.67;9.43;;;10.20;99.90;;;;;;5124192;27;20870;-83
2021/12/16 09:15:39;;;;;;;16.03;9.37;;;10.20;99.90;;;;;;5127553;27;20451;-83
2021/12/16 09:18:08;;;;;;;16.40;9.27;;;10.10;99.90;;;;;;5125438;27;20484;-83
2021/12/16 09:20:35;;;;;;;10.90;8.90;;;10.10;99.90;;;;;;5123582;27;20507;-82
2021/12/16 09:23:02;;;;;;;12.33;8.57;;;10.10;99.90;;;;;;5124472;27;20494;-83
2021/12/16 09:25:29;;;;;;;12.57;9.30;;;10.20;99.90;;;;;;5127194;27;20460;-83
2021/12/16 09:27:55;;;;;;;13.80;8.83;;;10.20;99.90;;;;;;5125927;27;20436;-83
2021/12/16 09:30:24;;;;;;;12.40;9.60;;;10.10;99.90;;;;;;5114999;27;20450;-83
2021/12/16 09:32:56;;;;;;;9.13;8.07;;;10.10;99.90;;;;;;5123033;27;20530;-82
2021/12/16 09:35:25;;;;;;;10.47;9.03;;;10.10;99.90;;;;;;5113946;27;20575;-82
2021/12/16 09:37:52;;;;;;;11.20;9.17;;;10.20;99.90;;;;;;5122229;27;20528;-83
2021/12/16 09:40:24;;;;;;;12.07;8.40;;;10.10;99.90;;;;;;5125275;27;20785;-83
2021/12/16 09:42:52;;;;;;;9.10;7.73;;;10.20;99.90;;;;;;5119806;27;20663;-84
2021/12/16 09:45:21;;;;;;;10.47;8.60;;;10.20;99.90;;;;;;5124785;27;20505;-85
2021/12/16 09:47:49;;;;;;;11.93;8.63;;;10.20;99.90;;;;;;5118526;27;20470;-83
2021/12/16 09:50:21;;;;;;;12.20;9.60;;;10.30;99.90;;;;;;5122825;27;20437;-83
2021/12/16 09:52:49;;;;;;;11.57;9.00;;;10.20;99.90;;;;;;5123246;27;20932;-82
2021/12/16 09:55:16;;;;;;;11.37;8.17;;;10.20;99.90;;;;;;5120925;27;20536;-82
2021/12/16 09:57:42;;;;;;;10.53;8.03;;;10.20;99.90;;;;;;5120924;27;20536;-82
2021/12/16 10:00:12;;;;;;;12.63;8.87;;;10.20;99.90;;;;;;5122537;27;20446;-83
2021/12/16 10:02:41;;;;;;;13.27;8.07;;;10.20;99.90;;;;;;5125531;27;20477;-82
2021/12/16 10:05:09;;;;;;;12.40;8.67;;;10.10;99.90;;;;;;5123587;27;20452;-89
2021/12/16 10:07:36;;;;;;;13.13;8.80;;;10.00;99.90;;;;;;5125547;27;20452;-85
2021/12/16 10:10:09;;;;;;;9.87;8.60;;;10.00;99.90;;;;;;5124901;27;20441;-82
2021/12/16 10:12:40;;;;;;;10.77;8.53;;;10.00;99.90;;;;;;5122199;27;20869;-83
2021/12/16 10:17:50;;;;;;;11.23;8.57;;;10.10;99.90;;;;;;5125173;27;20944;-81
2021/12/16 10:20:20;;;;;;;12.80;8.17;;;10.20;99.90;;;;;;5122398;27;20876;-81
2021/12/16 10:22:47;;;;;;;13.17;7.60;;;10.20;99.90;;;;;;5122079;27;20466;-81
2021/12/16 10:25:28;;;;;;;10.13;7.13;;;10.20;99.90;;;;;;5124400;27;20434;-81
2021/12/16 10:28:07;;;;;;;9.90;6.77;;;10.30;99.90;;;;;;5125442;27;20490;-82
2021/12/16 10:30:54;;;;;;;8.70;7.30;;;10.30;99.90;;;;;;5115328;27;20457;-81
2021/12/16 10:33:26;;;;;;;8.83;7.10;;;10.40;99.90;;;;;;5112362;27;20556;-82
2021/12/16 10:36:00;;;;;;;9.03;6.80;;;10.30;99.90;;;;;;5120911;27;20964;-81
2021/12/16 10:38:26;;;;;;;9.93;7.10;;;10.40;99.90;;;;;;5113730;27;20480;-82
2021/12/16 10:40:56;;;;;;;12.90;6.40;;;10.40;99.90;;;;;;5122186;27;20531;-81
2021/12/16 10:43:31;;;;;;;8.47;7.60;;;10.40;99.90;;;;;;5110091;28;20531;-82
2021/12/16 10:46:01;;;;;;;9.30;6.60;;;10.40;99.90;;;;;;5124927;27;20927;-81
2021/12/16 10:48:30;;;;;;;10.23;6.73;;;10.50;99.90;;;;;;5081008;28;20436;-82
2021/12/16 10:51:10;;;;;;;8.83;6.60;;;10.50;99.90;;;;;;5080501;28;20450;-82
2021/12/16 10:54:04;;;;;;;7.20;6.47;;;10.50;99.90;;;;;;5083713;28;21021;-82
2021/12/16 10:56:36;;;;;;;8.40;6.20;;;10.50;99.90;;;;;;5073980;28;20490;-82
2021/12/16 10:59:08;;;;;;;6.10;5.20;;;10.50;99.90;;;;;;5081930;28;20436;-82
2021/12/16 11:01:39;;;;;;;6.97;5.70;;;10.60;99.90;;;;;;5080486;28;20853;-82
2021/12/16 11:04:09;;;;;;;9.43;5.40;;;10.60;99.90;;;;;;5081199;28;20539;-82
2021/12/16 11:06:39;;;;;;;5.33;4.83;;;10.50;99.90;;;;;;5083208;28;21072;-81
2021/12/16 11:09:38;;;;;;;6.43;5.10;;;10.60;99.90;;;;;;5081732;28;20537;-81
2021/12/16 11:12:10;;;;;;;5.03;4.53;;;10.70;99.90;;;;;;5046655;28;20513;-82
2021/12/16 11:14:37;;;;;;;6.67;5.47;;;10.70;99.90;;;;;;5083604;28;20562;-82
2021/12/16 11:17:06;;;;;;;5.80;5.30;;;10.80;99.90;;;;;;5081966;28;20447;-82
2021/12/16 11:19:40;;;;;;;6.47;4.47;;;10.80;99.90;;;;;;5079915;28;20534;-82
2021/12/16 11:22:07;;;;;;;6.23;3.97;;;10.80;99.90;;;;;;5080805;28;20479;-81
2021/12/16 11:24:34;;;;;;;4.00;3.70;;;10.90;99.90;;;;;;5079952;28;20538;-81
2021/12/16 11:27:18;;;;;;;3.47;3.17;;;10.80;99.90;;;;;;5081303;28;20970;-82
2021/12/16 11:29:46;;;;;;;4.50;4.10;;;10.80;99.90;;;;;;5084182;28;20470;-82
2021/12/16 11:32:34;;;;;;;5.73;3.73;;;10.80;99.90;;;;;;5081418;28;20603;-82
2021/12/16 11:35:00;;;;;;;7.53;4.87;;;10.80;99.90;;;;;;5081350;28;21330;-81
2021/12/16 11:37:27;;;;;;;4.30;3.90;;;10.80;99.90;;;;;;5083788;28;20462;-81
2021/12/16 11:39:53;;;;;;;3.40;3.10;;;10.80;99.90;;;;;;5077200;28;20479;-82
2021/12/16 11:42:27;;;;;;;4.20;3.47;;;10.80;99.90;;;;;;5081187;28;20478;-82
2021/12/16 11:44:57;;;;;;;5.70;3.40;;;10.80;99.90;;;;;;5080368;28;20443;-82
2021/12/16 11:47:26;;;;;;;2.90;2.70;;;10.70;99.90;;;;;;5094323;28;20476;-81
2021/12/16 11:49:55;;;;;;;7.20;3.30;;;10.80;99.90;;;;;;5120513;28;20502;-81
2021/12/16 11:52:24;;;;;;;3.20;2.90;;;10.80;99.90;;;;;;5127484;27;20531;-81
2021/12/16 11:54:54;;;;;;;3.10;2.80;;;10.80;99.90;;;;;;5127557;27;20588;-82
2021/12/16 11:57:24;;;;;;;4.33;3.13;;;10.90;99.90;;;;;;5115151;27;20449;-81
2021/12/16 11:59:55;;;;;;;3.03;2.80;;;11.10;99.90;;;;;;5123408;27;20446;-82
2021/12/16 12:02:26;;;;;;;4.10;3.80;;;11.10;99.90;;;;;;5127272;27;20444;-82
2021/12/16 12:04:54;;;;;;;4.50;4.10;;;11.10;99.90;;;;;;5127540;27;20465;-81
2021/12/16 12:07:21;;;;;;;6.03;3.20;;;11.00;99.90;;;;;;5115069;27;20473;-81
2021/12/16 12:09:50;;;;;;;3.77;3.43;;;11.00;99.90;;;;;;5123752;27;20503;-81
2021/12/16 12:12:17;;;;;;;4.00;3.70;;;11.10;99.90;;;;;;5125999;27;20441;-81
2021/12/16 12:14:45;;;;;;;3.80;3.47;;;11.20;99.90;;;;;;5127061;27;20508;-81
2021/12/16 12:17:16;;;;;;;6.03;3.70;;;11.20;99.90;;;;;;5124590;27;20449;-81
2021/12/16 12:19:46;;;;;;;3.33;3.03;;;11.30;99.90;;;;;;5123634;27;20499;-82
2021/12/16 12:22:14;;;;;;;4.17;3.60;;;11.30;99.90;;;;;;5125472;27;20481;-81
2021/12/16 12:24:44;;;;;;;4.43;3.10;;;11.30;99.90;;;;;;5126713;27;20498;-81
2021/12/16 12:27:13;;;;;;;3.47;3.17;;;11.20;99.90;;;;;;5124495;27;20893;-81
2021/12/16 12:29:43;;;;;;;4.30;3.27;;;11.10;99.90;;;;;;5123498;27;20465;-82
2021/12/16 12:32:13;;;;;;;3.50;3.20;;;10.90;99.90;;;;;;5124710;27;20988;-81
2021/12/16 12:34:46;;;;;;;4.40;3.70;;;10.80;99.90;;;;;;5126755;27;20563;-82
2021/12/16 12:37:15;;;;;;;5.73;4.13;;;10.70;99.90;;;;;;5123801;27;20959;-81
2021/12/16 12:39:43;;;;;;;5.37;3.17;;;10.60;99.90;;;;;;5123147;27;21019;-81
2021/12/16 12:42:12;;;;;;;2.93;2.57;;;10.60;99.90;;;;;;5124735;27;20809;-81
2021/12/16 12:44:39;;;;;;;3.90;3.30;;;10.50;99.90;;;;;;5123662;27;20468;-81
2021/12/16 12:47:10;;;;;;;4.37;3.60;;;10.40;99.90;;;;;;5125149;27;20505;-82
2021/12/16 12:49:37;;;;;;;5.50;3.60;;;10.40;99.90;;;;;;5127233;27;20927;-81
2021/12/16 12:52:10;;;;;;;8.50;5.50;;;10.30;99.90;;;;;;5125960;27;20464;-79
2021/12/16 12:54:39;;;;;;;4.60;4.20;;;10.30;99.90;;;;;;5123611;27;20802;-79
2021/12/16 12:57:23;;;;;;;6.10;4.30;;;10.30;99.90;;;;;;5124931;27;20442;-79
2021/12/16 12:59:50;;;;;;;3.63;3.33;;;10.30;99.90;;;;;;5127108;27;20850;-78
2021/12/16 13:02:19;;;;;;;4.90;3.03;;;10.30;99.90;;;;;;5119588;27;20477;-78
2021/12/16 13:04:51;;;;;;;4.13;2.67;;;10.10;99.90;;;;;;5126281;27;20449;-79
2021/12/16 13:07:19;;;;;;;4.13;2.43;;;10.00;99.90;;;;;;5122765;27;20865;-79
2021/12/16 13:09:48;;;;;;;4.10;3.17;;;10.00;99.90;;;;;;5122596;27;20532;-78
2021/12/16 13:12:33;;;;;;;4.83;3.50;;;10.00;99.90;;;;;;5124880;27;20471;-79
2021/12/16 13:15:10;;;;;;;3.83;2.97;;;9.90;99.90;;;;;;5125119;27;20548;-78
2021/12/16 13:23:37;;;;;;;6.90;4.13;;;9.80;99.90;;;;;;5122265;27;20517;-78
2021/12/16 13:26:28;;;;;;;6.00;3.90;;;9.80;99.90;;;;;;5123124;27;20477;-79
2021/12/16 13:29:03;;;;;;;3.30;3.00;;;9.80;99.90;;;;;;5125682;27;20441;-78
2021/12/16 13:31:45;;;;;;;4.30;3.10;;;9.70;99.90;;;;;;5121935;27;20469;-79
2021/12/16 13:34:27;;;;;;;4.50;3.10;;;9.70;99.90;;;;;;5124110;27;20473;-78
2021/12/16 13:36:57;;;;;;;4.50;3.10;;;9.70;99.90;;;;;;5125626;27;20441;-78
2021/12/16 13:39:26;;;;;;;4.23;3.13;;;9.70;99.90;;;;;;5113511;27;20445;-79
2021/12/16 13:41:56;;;;;;;3.40;3.00;;;9.60;99.90;;;;;;5121820;27;20847;-78
2021/12/16 13:44:40;;;;;;;5.83;2.63;;;9.60;99.90;;;;;;5120454;27;20948;-78
2021/12/16 13:47:16;;;;;;;3.63;3.30;;;9.60;99.90;;;;;;5124006;27;20557;-79
2021/12/16 13:59:28;;;;;;;3.10;2.80;;;9.40;99.90;;;;;;5122098;27;20579;-79
2021/12/16 14:01:54;;;;;;;5.83;2.77;;;9.40;99.90;;;;;;5115176;27;20437;-78
2021/12/16 14:04:41;;;;;;;4.10;3.27;;;9.40;99.90;;;;;;5124527;27;20452;-78
2021/12/16 14:07:40;;;;;;;4.60;3.40;;;9.30;99.90;;;;;;5123048;27;20469;-80
2021/12/16 14:10:14;;;;;;;6.70;3.33;;;9.30;99.90;;;;;;5122879;27;20532;-79
2021/12/16 14:16:15;;;;;;;5.90;3.50;;;9.20;99.90;;;;;;5118308;27;20465;-78
2021/12/16 14:25:02;;;;;;;5.43;3.83;;;9.20;99.90;;;;;;5124775;27;20440;-78
2021/12/16 14:38:55;;;;;;;9.57;2.77;;;9.00;99.90;;;;;;5090141;27;20534;-79
2021/12/16 14:41:50;;;;;;;6.57;2.77;;;9.00;99.90;;;;;;5120736;27;20489;-79
2021/12/16 14:45:13;;;;;;;7.10;3.30;;;8.80;99.90;;;;;;5124276;27;20450;-79
2021/12/16 14:47:41;;;;;;;2.93;2.60;;;8.80;99.90;;;;;;5121943;27;21017;-79
2021/12/16 14:50:08;;;;;;;6.87;3.10;;;8.70;99.90;;;;;;5120252;27;20819;-79
2021/12/16 14:52:36;;;;;;;7.97;3.80;;;8.60;99.90;;;;;;5126837;27;20528;-78
2021/12/16 14:55:06;;;;;;;12.23;2.80;;;8.70;99.90;;;;;;5122261;28;20988;-78
2021/12/16 14:57:36;;;;;;;5.07;2.43;;;8.70;99.90;;;;;;5125128;27;20445;-79
2021/12/16 15:00:15;;;;;;;8.30;3.23;;;8.70;99.90;;;;;;5124347;27;20456;-78
2021/12/16 15:02:45;;;;;;;9.97;3.37;;;8.70;99.90;;;;;;5120816;28;20440;-78
2021/12/16 15:05:25;;;;;;;4.17;2.90;;;8.70;99.90;;;;;;5121533;27;20452;-78
2021/12/16 15:07:52;;;;;;;4.13;2.90;;;8.70;99.90;;;;;;5120789;28;20883;-78
2021/12/16 15:10:19;;;;;;;9.97;3.87;;;8.60;99.90;;;;;;5123412;28;20448;-78
2021/12/16 15:12:51;;;;;;;7.60;4.03;;;8.60;99.90;;;;;;5124131;28;20437;-78
2021/12/16 15:15:27;;;;;;;5.30;3.00;;;8.50;99.90;;;;;;5120454;28;20980;-78
2021/12/16 15:38:04;;;;;;;4.47;2.97;;;8.20;99.90;;;;;;5124390;27;20445;-78
2021/12/16 15:40:35;;;;;;;5.90;3.80;;;8.20;99.90;;;;;;5117432;27;20433;-79
2021/12/16 15:43:03;;;;;;;5.03;3.63;;;8.10;99.90;;;;;;5125792;27;20445;-79
2021/12/16 15:45:35;;;;;;;4.40;3.87;;;8.10;99.90;;;;;;5128599;27;20440;-78